Time;durP1;ratioP1;P1;durP2;ratioP2;P2;SDS_P1;SDS_P2;PMS_P1;PMS_P2;Temp;Humidity;BMP_temperature;BMP_pressure;BME280_temperature;BME280_humidity;BME280_pressure;Samples;Min_cycle;Max_cycle;Signal;HPM_P1;HPM_P2
2021/03/20 00:00:57;;;;;;;54.38;37.75;;;1.40;99.90;;;;;;5094074;28;20226;-66
2021/03/20 00:03:23;;;;;;;48.83;36.88;;;1.40;99.90;;;;;;5093807;28;20265;-68
2021/03/20 00:05:49;;;;;;;44.23;31.60;;;1.40;99.90;;;;;;5094031;28;20630;-67
2021/03/20 00:08:18;;;;;;;47.00;31.75;;;1.40;99.90;;;;;;5093869;28;20407;-66
2021/03/20 00:10:45;;;;;;;45.70;33.38;;;1.60;99.90;;;;;;5093878;28;20188;-68
2021/03/20 00:13:11;;;;;;;69.90;43.72;;;1.60;99.90;;;;;;5093733;28;20200;-66
2021/03/20 00:15:37;;;;;;;59.70;40.38;;;1.70;99.90;;;;;;5092533;28;20267;-66
2021/03/20 00:18:03;;;;;;;70.13;42.90;;;1.60;99.90;;;;;;5093820;28;20284;-68
2021/03/20 00:20:35;;;;;;;43.50;33.00;;;1.50;99.90;;;;;;5093763;28;20183;-67
2021/03/20 00:23:01;;;;;;;45.80;32.33;;;1.60;99.90;;;;;;5093689;28;21011;-68
2021/03/20 00:25:27;;;;;;;42.37;32.50;;;1.60;99.90;;;;;;5093877;28;20169;-69
2021/03/20 00:27:53;;;;;;;42.30;30.60;;;1.50;99.90;;;;;;5093549;28;20419;-67
2021/03/20 00:30:20;;;;;;;42.85;29.70;;;1.50;99.90;;;;;;5092600;28;20180;-67
2021/03/20 00:32:46;;;;;;;50.65;33.13;;;1.40;99.90;;;;;;5092279;28;20554;-67
2021/03/20 00:35:13;;;;;;;46.78;33.60;;;1.60;99.90;;;;;;5093580;28;20722;-68
2021/03/20 00:37:39;;;;;;;47.97;34.70;;;1.70;99.90;;;;;;5093538;28;20173;-67
2021/03/20 00:40:12;;;;;;;47.53;33.30;;;1.60;99.90;;;;;;5093489;28;20260;-68
2021/03/20 00:42:37;;;;;;;50.17;35.78;;;1.70;99.90;;;;;;5093129;28;20228;-66
2021/03/20 00:45:06;;;;;;;48.57;34.47;;;1.70;99.90;;;;;;5093451;28;20182;-67
2021/03/20 00:47:32;;;;;;;45.55;34.10;;;1.50;99.90;;;;;;5092136;28;20189;-68
2021/03/20 00:49:58;;;;;;;52.20;35.60;;;1.70;99.90;;;;;;5095040;28;20225;-68
2021/03/20 00:52:23;;;;;;;51.57;36.47;;;1.70;99.90;;;;;;5096423;28;20565;-67
2021/03/20 00:54:49;;;;;;;47.43;33.30;;;1.60;99.90;;;;;;5097274;28;20208;-68
2021/03/20 00:57:14;;;;;;;43.87;32.27;;;1.60;99.90;;;;;;5097800;28;20255;-67
2021/03/20 00:59:41;;;;;;;47.87;33.47;;;1.60;99.90;;;;;;5095900;28;20257;-67
2021/03/20 01:02:07;;;;;;;46.80;35.80;;;1.70;99.90;;;;;;5097622;28;20204;-68
2021/03/20 01:04:33;;;;;;;45.05;35.15;;;1.60;99.90;;;;;;5097089;28;20669;-66
2021/03/20 01:06:58;;;;;;;46.33;33.43;;;1.60;99.90;;;;;;5096071;28;20183;-67
2021/03/20 01:09:26;;;;;;;48.13;33.47;;;1.60;99.90;;;;;;5097067;28;20196;-67
2021/03/20 01:11:52;;;;;;;47.95;32.25;;;1.50;99.90;;;;;;5097477;28;20553;-66
2021/03/20 01:14:17;;;;;;;47.90;33.65;;;1.60;99.90;;;;;;5096966;28;20200;-67
2021/03/20 01:16:43;;;;;;;42.20;31.93;;;1.70;99.90;;;;;;5095839;28;20536;-68
2021/03/20 01:19:09;;;;;;;49.20;34.17;;;1.70;99.90;;;;;;5096871;28;20261;-66
2021/03/20 01:21:34;;;;;;;41.63;30.70;;;1.60;99.90;;;;;;5097172;28;20173;-67
2021/03/20 01:24:00;;;;;;;49.17;33.60;;;1.60;99.90;;;;;;5095495;28;20211;-67
2021/03/20 01:26:25;;;;;;;43.60;29.80;;;1.80;99.90;;;;;;5097088;28;20210;-66
2021/03/20 01:28:51;;;;;;;46.90;35.43;;;1.90;99.90;;;;;;5095288;28;20226;-66
2021/03/20 01:31:17;;;;;;;53.93;34.60;;;1.90;99.90;;;;;;5096895;28;20177;-66
2021/03/20 01:33:43;;;;;;;47.87;34.70;;;1.80;99.90;;;;;;5096555;28;20279;-67
2021/03/20 01:36:09;;;;;;;56.73;33.67;;;1.70;99.90;;;;;;5096933;28;20175;-67
2021/03/20 01:38:35;;;;;;;52.85;35.90;;;1.70;99.90;;;;;;5096442;28;20560;-66
2021/03/20 01:41:08;;;;;;;49.50;33.23;;;1.80;99.90;;;;;;5096701;28;20161;-66
2021/03/20 01:43:35;;;;;;;53.70;34.90;;;1.60;99.90;;;;;;5096309;28;20534;-66
2021/03/20 01:46:34;;;;;;;57.75;37.47;;;1.70;99.90;;;;;;5096617;28;20182;-66
2021/03/20 01:49:03;;;;;;;56.30;38.20;;;1.50;99.90;;;;;;5096251;28;20253;-67
2021/03/20 01:51:29;;;;;;;59.25;37.28;;;1.50;99.90;;;;;;5096532;28;20642;-66
2021/03/20 01:53:58;;;;;;;63.50;39.42;;;1.50;99.90;;;;;;5096132;28;20275;-66
2021/03/20 01:56:33;;;;;;;63.08;36.83;;;1.60;99.90;;;;;;5094875;28;20642;-68
2021/03/20 01:58:59;;;;;;;54.20;35.63;;;1.40;99.90;;;;;;5094846;28;20659;-66
2021/03/20 02:01:30;;;;;;;52.30;36.13;;;1.60;99.90;;;;;;5095204;28;20168;-67
2021/03/20 02:03:57;;;;;;;54.33;35.90;;;1.60;99.90;;;;;;5095988;28;20228;-67
2021/03/20 02:06:25;;;;;;;55.05;37.60;;;1.40;99.90;;;;;;5096212;28;20257;-67
2021/03/20 02:08:53;;;;;;;52.45;34.92;;;1.40;99.90;;;;;;5094550;28;20206;-67
2021/03/20 02:11:36;;;;;;;57.97;36.58;;;1.40;99.90;;;;;;5095889;28;20691;-67
2021/03/20 02:14:13;;;;;;;57.50;36.20;;;1.40;99.90;;;;;;5094531;28;20216;-66
2021/03/20 02:17:02;;;;;;;51.42;36.08;;;1.30;99.90;;;;;;5094709;28;20707;-66
2021/03/20 02:19:37;;;;;;;60.20;38.42;;;1.40;99.90;;;;;;5095724;28;20196;-68
2021/03/20 02:22:07;;;;;;;56.20;36.00;;;1.40;99.90;;;;;;5094480;28;20670;-67
2021/03/20 02:25:00;;;;;;;57.47;36.85;;;1.40;99.90;;;;;;5095539;28;20199;-67
2021/03/20 02:28:02;;;;;;;53.90;35.20;;;1.30;99.90;;;;;;5096070;28;20525;-67
2021/03/20 02:30:33;;;;;;;55.78;36.67;;;1.10;99.90;;;;;;5095667;28;20187;-68
2021/03/20 02:33:02;;;;;;;53.10;36.00;;;1.10;99.90;;;;;;5095543;28;20193;-66
2021/03/20 02:36:00;;;;;;;54.38;36.35;;;1.00;99.90;;;;;;5095512;28;20173;-66
2021/03/20 02:38:32;;;;;;;56.10;37.03;;;1.00;99.90;;;;;;5086188;28;20291;-67
2021/03/20 02:41:15;;;;;;;60.42;37.08;;;0.90;99.90;;;;;;5095616;28;20599;-67
2021/03/20 02:43:53;;;;;;;52.95;37.03;;;1.10;99.90;;;;;;5095156;28;20595;-66
2021/03/20 02:46:37;;;;;;;54.75;34.20;;;1.20;99.90;;;;;;5094112;28;20699;-66
2021/03/20 02:49:22;;;;;;;55.20;35.95;;;0.90;99.90;;;;;;5095260;28;20249;-66
2021/03/20 02:52:12;;;;;;;71.05;42.00;;;0.90;99.90;;;;;;5095494;28;20267;-68
2021/03/20 02:54:58;;;;;;;65.63;38.83;;;1.10;99.90;;;;;;5095129;28;20192;-67
2021/03/20 02:58:04;;;;;;;66.13;40.38;;;1.00;99.90;;;;;;5095583;28;20644;-67
2021/03/20 03:00:40;;;;;;;66.45;41.70;;;0.90;99.90;;;;;;5055824;28;20555;-66
2021/03/20 03:03:09;;;;;;;71.20;43.10;;;0.90;99.90;;;;;;5092591;28;20236;-67
2021/03/20 03:05:43;;;;;;;60.80;39.03;;;0.90;99.90;;;;;;5094831;28;20176;-66
2021/03/20 03:08:29;;;;;;;57.40;37.40;;;0.70;99.90;;;;;;5094805;28;20240;-67
2021/03/20 03:11:07;;;;;;;59.33;37.97;;;0.60;99.90;;;;;;5095090;28;20173;-66
2021/03/20 03:13:39;;;;;;;60.00;38.15;;;0.70;99.90;;;;;;5094368;28;20291;-67
2021/03/20 03:16:12;;;;;;;62.42;39.92;;;0.70;99.90;;;;;;5094820;28;20180;-66
2021/03/20 03:18:43;;;;;;;59.75;39.53;;;0.70;99.90;;;;;;5094637;28;20192;-66
2021/03/20 03:21:11;;;;;;;59.78;39.30;;;0.60;99.90;;;;;;5093488;28;20221;-66
2021/03/20 03:23:39;;;;;;;62.25;38.40;;;0.60;99.90;;;;;;5094306;28;20217;-66
2021/03/20 03:26:10;;;;;;;64.57;39.03;;;0.60;99.90;;;;;;5094719;28;20177;-68
2021/03/20 03:28:38;;;;;;;54.15;37.25;;;0.70;99.90;;;;;;5094135;28;20199;-66
2021/03/20 03:31:11;;;;;;;57.88;38.63;;;0.70;99.90;;;;;;5094566;28;20172;-66
2021/03/20 03:33:50;;;;;;;60.40;37.33;;;0.50;99.90;;;;;;5094329;28;20196;-67
2021/03/20 03:36:19;;;;;;;62.67;40.13;;;0.50;99.90;;;;;;5093238;28;20180;-66
2021/03/20 03:39:07;;;;;;;64.50;39.75;;;0.50;99.90;;;;;;5094165;28;20198;-67
2021/03/20 03:41:54;;;;;;;59.92;38.70;;;0.60;99.90;;;;;;5094707;28;20626;-66
2021/03/20 03:44:20;;;;;;;61.28;39.35;;;0.40;99.90;;;;;;5094149;28;20236;-67
2021/03/20 03:46:47;;;;;;;62.80;39.50;;;0.30;99.90;;;;;;5094488;28;20528;-66
2021/03/20 03:49:18;;;;;;;64.13;38.78;;;0.40;99.90;;;;;;5094253;28;20697;-67
2021/03/20 03:51:43;;;;;;;65.15;41.78;;;0.40;99.90;;;;;;5092697;28;20181;-69
2021/03/20 03:54:09;;;;;;;76.40;45.13;;;0.30;99.90;;;;;;5094028;28;20207;-66
2021/03/20 03:57:00;;;;;;;81.07;47.70;;;0.30;99.90;;;;;;5092943;28;20220;-66
2021/03/20 03:59:36;;;;;;;70.32;44.22;;;0.30;99.90;;;;;;5093995;28;20246;-68
2021/03/20 04:02:20;;;;;;;82.88;47.10;;;0.20;99.90;;;;;;5092853;28;20730;-67
2021/03/20 04:05:01;;;;;;;71.75;45.30;;;0.20;99.90;;;;;;5093932;28;20196;-67
2021/03/20 04:07:52;;;;;;;65.82;43.03;;;0.20;99.90;;;;;;5093802;28;20316;-68
2021/03/20 04:10:36;;;;;;;82.43;46.95;;;0.20;99.90;;;;;;5094011;28;20649;-68
2021/03/20 04:13:13;;;;;;;76.97;46.40;;;0.20;99.90;;;;;;5093945;28;20208;-66
2021/03/20 04:15:53;;;;;;;77.85;46.40;;;0.20;99.90;;;;;;5093994;28;20200;-68
2021/03/20 04:18:22;;;;;;;83.60;46.58;;;0.20;99.90;;;;;;5093759;28;20207;-66
2021/03/20 04:21:15;;;;;;;72.45;43.80;;;0.00;99.90;;;;;;5093775;28;20606;-66
2021/03/20 04:23:51;;;;;;;84.80;47.38;;;0.00;99.90;;;;;;5093488;28;20561;-66
2021/03/20 04:26:38;;;;;;;84.60;47.00;;;-0.10;99.90;;;;;;5096507;28;20186;-66
2021/03/20 04:29:16;;;;;;;64.68;40.80;;;0.10;99.90;;;;;;5097881;28;20188;-67
2021/03/20 04:31:48;;;;;;;66.80;43.45;;;0.20;99.90;;;;;;5098076;28;20176;-67
2021/03/20 04:34:20;;;;;;;78.38;45.38;;;0.10;99.90;;;;;;5097821;28;20673;-66
2021/03/20 04:36:54;;;;;;;74.85;43.90;;;0.10;99.90;;;;;;5098083;28;20695;-68
2021/03/20 04:39:24;;;;;;;71.45;41.47;;;0.10;99.90;;;;;;5097775;28;20271;-68
2021/03/20 04:41:52;;;;;;;71.10;44.10;;;0.00;99.90;;;;;;5096532;28;20176;-66
2021/03/20 04:44:17;;;;;;;68.03;41.00;;;0.00;99.90;;;;;;5096261;28;20247;-66
2021/03/20 04:46:44;;;;;;;70.25;41.22;;;-0.20;99.90;;;;;;5097780;28;20172;-68
2021/03/20 04:49:19;;;;;;;63.65;40.83;;;-0.20;99.90;;;;;;5096162;28;20200;-68
2021/03/20 04:51:57;;;;;;;69.10;43.20;;;-0.20;99.90;;;;;;5097285;28;20537;-68
2021/03/20 04:54:25;;;;;;;69.20;42.53;;;-0.20;99.90;;;;;;5097493;28;20676;-66
2021/03/20 04:56:55;;;;;;;86.60;50.28;;;0.00;99.90;;;;;;5097753;28;20196;-66
2021/03/20 04:59:38;;;;;;;76.68;46.83;;;0.10;99.90;;;;;;5096457;28;20227;-67
2021/03/20 05:02:12;;;;;;;71.95;47.35;;;0.00;99.90;;;;;;5097661;28;20196;-69
2021/03/20 05:04:42;;;;;;;86.93;49.80;;;0.20;99.90;;;;;;5097210;28;20197;-68
2021/03/20 05:07:09;;;;;;;84.97;52.13;;;0.30;99.90;;;;;;5097691;28;20259;-68
2021/03/20 05:09:34;;;;;;;79.03;49.45;;;0.40;99.90;;;;;;5095808;28;20287;-67
2021/03/20 05:12:02;;;;;;;84.43;52.10;;;0.30;99.90;;;;;;5097527;28;20198;-67
2021/03/20 05:14:39;;;;;;;88.03;50.90;;;0.40;99.90;;;;;;5096937;28;20197;-66
2021/03/20 05:17:13;;;;;;;77.30;46.45;;;0.40;99.90;;;;;;5095878;28;20653;-67
2021/03/20 05:19:39;;;;;;;97.82;49.08;;;0.40;99.90;;;;;;5096910;28;20662;-67
2021/03/20 05:22:05;;;;;;;106.50;59.13;;;0.40;99.90;;;;;;5097468;28;20204;-67
2021/03/20 05:24:38;;;;;;;113.88;60.35;;;0.10;99.90;;;;;;5096217;28;20949;-68
2021/03/20 05:27:08;;;;;;;183.80;87.20;;;0.30;99.90;;;;;;5094553;28;20184;-67
2021/03/20 05:29:34;;;;;;;109.80;62.83;;;0.40;99.90;;;;;;5095396;28;20192;-67
2021/03/20 05:32:01;;;;;;;109.33;58.70;;;0.40;99.90;;;;;;5095606;28;20535;-66
2021/03/20 05:34:38;;;;;;;87.00;54.40;;;0.40;99.90;;;;;;5094357;28;20993;-66
2021/03/20 05:37:06;;;;;;;143.85;67.43;;;0.40;99.90;;;;;;5096893;28;20176;-68
2021/03/20 05:39:32;;;;;;;115.72;58.47;;;0.50;99.90;;;;;;5093167;28;20299;-68
2021/03/20 05:42:19;;;;;;;118.17;61.13;;;0.40;99.90;;;;;;5093161;28;20204;-68
2021/03/20 05:44:51;;;;;;;105.13;53.22;;;0.40;99.90;;;;;;5094227;28;20584;-67
2021/03/20 05:47:32;;;;;;;94.15;50.38;;;0.40;99.90;;;;;;5094775;28;20164;-66
2021/03/20 05:50:09;;;;;;;78.70;48.75;;;0.50;99.90;;;;;;5094129;28;20230;-68
2021/03/20 05:52:53;;;;;;;84.38;46.63;;;0.50;99.90;;;;;;5092822;28;20596;-68
2021/03/20 05:55:42;;;;;;;80.68;47.55;;;0.50;99.90;;;;;;5096259;28;20165;-68
2021/03/20 05:58:24;;;;;;;106.43;60.90;;;0.40;99.90;;;;;;5096191;28;20695;-67
2021/03/20 06:01:14;;;;;;;107.25;65.15;;;0.50;99.90;;;;;;5096339;28;20227;-67
2021/03/20 06:04:09;;;;;;;108.32;65.93;;;0.70;99.90;;;;;;5095945;28;20216;-66
2021/03/20 06:06:57;;;;;;;112.82;67.30;;;0.80;99.90;;;;;;5096436;28;20177;-67
2021/03/20 06:09:50;;;;;;;99.53;61.10;;;0.90;99.90;;;;;;5096008;28;20196;-66
2021/03/20 06:12:22;;;;;;;98.57;57.72;;;0.90;99.90;;;;;;5094886;28;20180;-68
2021/03/20 06:15:05;;;;;;;93.57;55.65;;;1.10;99.90;;;;;;5095773;28;20709;-67
2021/03/20 06:17:55;;;;;;;92.63;52.42;;;1.00;99.90;;;;;;5095734;28;20183;-68
2021/03/20 06:20:29;;;;;;;96.28;54.40;;;1.10;99.90;;;;;;5095822;28;20168;-67
2021/03/20 06:23:33;;;;;;;93.20;57.75;;;1.20;99.90;;;;;;5095566;28;20227;-68
2021/03/20 06:26:07;;;;;;;86.85;52.17;;;1.30;99.90;;;;;;5095801;28;20172;-66
2021/03/20 06:29:15;;;;;;;84.60;51.15;;;1.20;99.90;;;;;;5095576;28;20196;-68
2021/03/20 06:31:47;;;;;;;83.75;52.28;;;1.30;99.90;;;;;;5053184;28;20743;-67
2021/03/20 06:34:20;;;;;;;86.90;54.00;;;1.30;99.90;;;;;;5053109;28;20558;-66
2021/03/20 06:36:54;;;;;;;77.07;48.00;;;1.50;99.90;;;;;;5069043;28;20195;-68
2021/03/20 06:39:35;;;;;;;79.47;47.20;;;1.70;99.90;;;;;;5095291;28;20192;-67
2021/03/20 06:42:19;;;;;;;71.50;44.03;;;1.90;99.90;;;;;;5095821;28;20239;-67
2021/03/20 06:44:48;;;;;;;73.75;43.17;;;1.90;99.90;;;;;;5095277;28;20208;-67
2021/03/20 06:47:18;;;;;;;70.75;45.80;;;1.90;99.90;;;;;;5093687;28;20279;-66
2021/03/20 06:49:57;;;;;;;67.88;44.72;;;2.00;99.90;;;;;;5095117;28;20199;-67
2021/03/20 06:52:24;;;;;;;57.50;40.88;;;1.90;99.90;;;;;;5095910;28;20676;-68
2021/03/20 06:55:23;;;;;;;66.55;41.63;;;2.10;99.90;;;;;;5093601;28;20249;-68
2021/03/20 06:57:49;;;;;;;60.70;38.38;;;2.10;99.90;;;;;;5093907;28;20749;-69
2021/03/20 07:00:35;;;;;;;54.63;36.83;;;2.20;99.90;;;;;;5091957;28;20218;-67
2021/03/20 07:03:22;;;;;;;58.55;36.97;;;2.30;99.90;;;;;;5093649;28;20296;-67
2021/03/20 07:06:11;;;;;;;57.00;37.17;;;2.60;99.90;;;;;;5093789;28;20703;-67
2021/03/20 07:08:55;;;;;;;54.95;35.42;;;2.80;99.90;;;;;;5093986;28;20249;-68
2021/03/20 07:11:44;;;;;;;50.63;34.30;;;2.90;99.90;;;;;;5094083;28;20252;-67
2021/03/20 07:14:31;;;;;;;59.22;37.58;;;3.00;99.90;;;;;;5094723;28;20196;-67
2021/03/20 07:17:00;;;;;;;61.17;39.00;;;3.20;99.90;;;;;;5093281;28;20184;-68
2021/03/20 07:19:26;;;;;;;59.90;35.80;;;3.30;99.90;;;;;;5094615;28;20196;-68
2021/03/20 07:21:58;;;;;;;52.15;36.80;;;3.30;99.90;;;;;;5094815;28;20180;-67
2021/03/20 07:24:37;;;;;;;58.30;39.97;;;3.20;99.90;;;;;;5093179;28;20211;-66
2021/03/20 07:27:21;;;;;;;53.72;37.92;;;3.20;99.90;;;;;;5094834;28;20183;-68
2021/03/20 07:29:56;;;;;;;52.17;36.33;;;3.20;99.90;;;;;;5093056;28;20200;-66
2021/03/20 07:32:25;;;;;;;55.70;37.90;;;3.30;99.90;;;;;;5095028;28;20180;-68
2021/03/20 07:34:54;;;;;;;47.30;35.03;;;3.50;99.90;;;;;;5094196;28;20249;-66
2021/03/20 07:37:20;;;;;;;52.00;35.50;;;3.60;99.90;;;;;;5093348;28;20225;-68
2021/03/20 07:39:55;;;;;;;48.70;33.03;;;3.60;99.90;;;;;;5094210;28;20196;-67
2021/03/20 07:42:26;;;;;;;47.58;30.73;;;3.60;99.90;;;;;;5094477;28;20260;-67
2021/03/20 07:44:56;;;;;;;46.65;31.50;;;3.70;99.90;;;;;;5092851;28;20255;-67
2021/03/20 07:47:24;;;;;;;47.08;32.38;;;3.60;99.90;;;;;;5094738;28;20251;-68
2021/03/20 07:50:08;;;;;;;46.78;29.52;;;3.70;99.90;;;;;;5094004;28;20193;-67
2021/03/20 07:52:34;;;;;;;41.50;29.23;;;3.80;99.90;;;;;;5094094;28;20176;-67
2021/03/20 07:55:27;;;;;;;39.05;28.73;;;3.90;99.90;;;;;;5094020;28;20175;-68
2021/03/20 07:57:55;;;;;;;38.13;26.85;;;4.10;99.90;;;;;;5091961;28;20547;-68
2021/03/20 08:00:31;;;;;;;34.65;25.13;;;4.20;99.90;;;;;;5091904;28;20593;-67
2021/03/20 08:03:10;;;;;;;33.58;24.42;;;4.10;99.90;;;;;;5093928;28;20306;-68
2021/03/20 08:05:37;;;;;;;32.70;24.60;;;4.30;99.90;;;;;;5094080;28;20565;-66
2021/03/20 08:08:29;;;;;;;27.15;20.88;;;4.40;99.90;;;;;;5093748;28;20222;-68
2021/03/20 08:10:57;;;;;;;28.50;21.40;;;4.60;99.90;;;;;;5092008;28;20197;-66
2021/03/20 08:13:44;;;;;;;24.05;18.42;;;4.80;99.90;;;;;;5092475;28;20693;-68
2021/03/20 08:16:12;;;;;;;24.98;18.95;;;5.10;99.90;;;;;;5094064;28;20172;-68
2021/03/20 08:18:40;;;;;;;25.02;17.15;;;5.10;99.90;;;;;;5093731;28;20199;-69
2021/03/20 08:21:15;;;;;;;22.15;17.70;;;5.40;99.90;;;;;;5094044;28;20199;-67
2021/03/20 08:23:55;;;;;;;24.35;18.17;;;5.50;99.90;;;;;;5093519;28;20215;-67
2021/03/20 08:26:27;;;;;;;26.02;18.92;;;5.60;99.90;;;;;;5094113;28;20583;-67
2021/03/20 08:29:00;;;;;;;21.90;16.15;;;6.00;99.90;;;;;;5093548;28;20652;-68
2021/03/20 08:32:03;;;;;;;21.13;17.10;;;6.20;99.90;;;;;;5093977;28;20180;-67
2021/03/20 08:34:34;;;;;;;18.63;15.70;;;6.60;99.90;;;;;;5093572;28;20199;-67
2021/03/20 08:37:18;;;;;;;22.05;17.90;;;7.20;99.90;;;;;;5094210;28;20517;-68
2021/03/20 08:40:14;;;;;;;19.42;16.20;;;7.80;99.90;;;;;;5093573;28;20695;-67
2021/03/20 08:42:39;;;;;;;18.30;15.32;;;8.10;99.90;;;;;;5093285;28;20236;-67
2021/03/20 08:45:27;;;;;;;18.57;16.43;;;8.20;99.90;;;;;;5093470;28;20522;-68
2021/03/20 08:48:16;;;;;;;23.58;18.17;;;8.70;99.90;;;;;;5093442;28;20200;-69
2021/03/20 08:51:09;;;;;;;20.35;16.80;;;8.60;99.90;;;;;;5092316;28;20229;-67
2021/03/20 08:53:57;;;;;;;21.45;18.45;;;8.90;99.90;;;;;;5093620;28;20558;-68
2021/03/20 08:56:40;;;;;;;17.17;14.52;;;8.70;99.90;;;;;;5092344;28;20176;-69
2021/03/20 08:59:16;;;;;;;21.60;17.10;;;9.00;99.90;;;;;;5093459;28;20207;-68
2021/03/20 09:01:58;;;;;;;19.57;17.23;;;9.90;99.90;;;;;;5093835;28;20195;-68
2021/03/20 09:04:28;;;;;;;20.77;18.13;;;9.60;99.90;;;;;;5093395;28;20827;-69
2021/03/20 09:06:59;;;;;;;18.80;16.80;;;9.90;99.90;;;;;;5093679;28;20413;-68
2021/03/20 09:09:37;;;;;;;18.90;15.83;;;9.60;99.90;;;;;;5093276;28;20436;-69
2021/03/20 09:12:17;;;;;;;21.27;19.20;;;9.70;99.90;;;;;;5096922;28;20477;-68
2021/03/20 09:14:45;;;;;;;18.40;16.57;;;10.00;99.90;;;;;;5097048;28;20444;-67
2021/03/20 09:17:22;;;;;;;21.27;17.80;;;9.60;99.90;;;;;;5097544;28;20416;-68
2021/03/20 09:19:59;;;;;;;18.90;16.87;;;9.60;99.90;;;;;;5096920;28;20478;-68
2021/03/20 09:22:29;;;;;;;21.67;19.40;;;9.40;99.90;;;;;;5097325;28;20478;-68
2021/03/20 09:24:59;;;;;;;20.63;18.43;;;9.20;99.90;;;;;;5096908;28;20757;-68
2021/03/20 09:28:01;;;;;;;21.07;17.07;;;9.30;99.90;;;;;;5097380;28;20432;-67
2021/03/20 09:30:45;;;;;;;19.33;16.73;;;9.30;99.90;;;;;;5095542;28;20439;-69
2021/03/20 09:33:20;;;;;;;19.40;17.30;;;9.10;99.90;;;;;;5096791;28;20468;-69
2021/03/20 09:35:50;;;;;;;21.27;18.77;;;9.10;99.90;;;;;;5095319;28;20519;-69
2021/03/20 09:38:38;;;;;;;20.60;18.00;;;9.10;99.90;;;;;;5096519;28;20433;-69
2021/03/20 09:41:26;;;;;;;19.50;17.40;;;9.40;99.90;;;;;;5096833;28;20420;-69
2021/03/20 09:44:01;;;;;;;18.37;16.37;;;9.80;99.90;;;;;;5088812;28;20572;-69
2021/03/20 09:46:38;;;;;;;20.53;18.37;;;9.80;99.90;;;;;;5096705;28;20489;-68
2021/03/20 09:49:24;;;;;;;18.60;16.67;;;10.40;99.90;;;;;;5096308;28;20428;-68
2021/03/20 09:51:59;;;;;;;20.77;18.57;;;10.70;99.90;;;;;;5096807;28;20413;-68
2021/03/20 09:54:30;;;;;;;23.13;19.83;;;10.40;99.90;;;;;;5096300;28;20462;-68
2021/03/20 09:57:25;;;;;;;21.60;18.67;;;10.40;99.90;;;;;;5096133;28;20433;-69
2021/03/20 09:59:51;;;;;;;19.77;17.67;;;10.70;99.90;;;;;;5093837;28;20853;-68
2021/03/20 10:02:20;;;;;;;22.00;19.77;;;10.50;99.90;;;;;;5093861;28;20493;-68
2021/03/20 10:05:03;;;;;;;17.80;16.00;;;10.50;99.90;;;;;;5094000;28;20433;-68
2021/03/20 10:07:37;;;;;;;19.20;17.20;;;10.90;99.40;;;;;;5095975;28;20401;-69
2021/03/20 10:10:14;;;;;;;23.00;20.80;;;10.80;99.90;;;;;;5094742;28;20831;-69
2021/03/20 10:12:43;;;;;;;22.67;20.57;;;10.70;99.90;;;;;;5094668;28;20821;-68
2021/03/20 10:15:18;;;;;;;21.27;18.93;;;10.50;99.70;;;;;;5095219;28;20413;-67
2021/03/20 10:18:05;;;;;;;20.67;18.60;;;10.10;99.90;;;;;;5093742;28;20393;-69
2021/03/20 10:20:47;;;;;;;20.50;17.50;;;9.80;99.90;;;;;;5093671;28;20421;-68
2021/03/20 10:23:38;;;;;;;18.10;16.27;;;9.80;99.90;;;;;;5092486;28;20468;-68
2021/03/20 10:26:14;;;;;;;21.20;18.03;;;10.30;99.90;;;;;;5092190;28;20456;-69
2021/03/20 10:28:46;;;;;;;19.53;17.53;;;10.40;99.90;;;;;;5090653;28;20497;-67
2021/03/20 10:31:14;;;;;;;18.87;16.87;;;10.60;99.90;;;;;;5091739;28;20777;-68
2021/03/20 10:33:42;;;;;;;18.80;16.17;;;10.20;97.60;;;;;;5092833;28;20433;-68
2021/03/20 10:36:14;;;;;;;19.97;17.90;;;10.20;99.10;;;;;;5091890;28;20413;-68
2021/03/20 10:38:39;;;;;;;20.40;18.20;;;10.10;99.80;;;;;;5094874;28;20845;-67
2021/03/20 10:41:15;;;;;;;22.30;19.60;;;9.70;98.30;;;;;;5095329;28;20515;-68
2021/03/20 10:44:11;;;;;;;24.00;21.43;;;9.50;99.90;;;;;;5095106;28;20235;-68
2021/03/20 10:46:38;;;;;;;22.55;20.05;;;9.50;99.50;;;;;;5083787;28;20421;-68
2021/03/20 10:49:23;;;;;;;21.33;19.03;;;9.20;99.40;;;;;;5095083;28;20192;-68
2021/03/20 10:51:52;;;;;;;23.67;20.08;;;9.20;99.90;;;;;;5094035;28;20413;-68
2021/03/20 10:54:40;;;;;;;18.88;16.92;;;9.50;99.20;;;;;;5095022;28;20192;-67
2021/03/20 10:57:11;;;;;;;19.85;17.58;;;9.70;98.70;;;;;;5094960;28;20172;-68
2021/03/20 10:59:38;;;;;;;22.67;19.88;;;9.70;98.00;;;;;;5094111;28;20192;-69
2021/03/20 11:02:30;;;;;;;18.40;16.50;;;9.80;97.20;;;;;;5093782;28;20180;-69
2021/03/20 11:05:12;;;;;;;21.65;19.33;;;9.50;96.00;;;;;;5095054;28;20161;-67
2021/03/20 11:08:10;;;;;;;19.73;17.48;;;9.60;95.50;;;;;;5093518;28;20179;-68
2021/03/20 11:10:42;;;;;;;36.83;28.63;;;9.30;97.70;;;;;;5094449;28;20646;-69
2021/03/20 11:13:27;;;;;;;20.20;18.10;;;9.20;96.40;;;;;;5094866;28;20188;-68
2021/03/20 11:16:28;;;;;;;21.95;18.40;;;9.10;96.60;;;;;;5093651;28;20184;-68
2021/03/20 11:19:06;;;;;;;17.42;15.63;;;9.30;98.50;;;;;;5093511;28;20212;-68
2021/03/20 11:21:38;;;;;;;17.70;15.32;;;9.40;94.70;;;;;;5093568;28;20218;-67
2021/03/20 11:24:16;;;;;;;17.98;15.95;;;9.60;96.50;;;;;;5092625;28;20216;-67
2021/03/20 11:26:45;;;;;;;18.85;16.75;;;9.60;95.60;;;;;;5095075;28;20617;-67
2021/03/20 11:29:15;;;;;;;18.67;16.50;;;9.40;94.90;;;;;;5094300;28;20205;-69
2021/03/20 11:31:52;;;;;;;17.98;15.80;;;9.20;95.50;;;;;;5094759;28;20229;-67
2021/03/20 11:34:39;;;;;;;16.45;14.32;;;9.10;97.50;;;;;;5093867;28;20727;-69
2021/03/20 11:37:26;;;;;;;19.80;17.35;;;9.30;95.80;;;;;;5094265;28;20184;-69
2021/03/20 11:39:56;;;;;;;18.23;14.88;;;9.40;96.00;;;;;;5091960;28;20620;-69
2021/03/20 11:42:29;;;;;;;14.73;13.05;;;9.30;92.90;;;;;;5094385;28;20208;-67
2021/03/20 11:44:56;;;;;;;14.00;11.20;;;9.30;91.70;;;;;;5093142;28;20192;-67
2021/03/20 11:47:28;;;;;;;17.20;12.73;;;9.20;87.10;;;;;;5094703;28;20697;-67
2021/03/20 11:49:57;;;;;;;18.83;14.93;;;9.20;86.80;;;;;;5093936;28;20191;-67
2021/03/20 11:52:29;;;;;;;61.20;34.70;;;9.30;91.00;;;;;;5094490;28;20177;-68
2021/03/20 11:55:12;;;;;;;20.20;16.05;;;9.20;93.50;;;;;;5092706;28;20263;-69
2021/03/20 11:57:39;;;;;;;130.55;86.78;;;9.20;94.10;;;;;;5093928;28;20636;-68
2021/03/20 12:00:40;;;;;;;27.23;22.02;;;9.10;93.60;;;;;;5093870;28;20197;-67
2021/03/20 12:03:32;;;;;;;48.28;26.35;;;8.90;92.70;;;;;;5092142;28;20216;-66
2021/03/20 12:06:16;;;;;;;15.85;12.80;;;8.80;93.20;;;;;;5093568;28;20218;-67
2021/03/20 12:08:50;;;;;;;10.52;9.07;;;8.80;93.00;;;;;;5093717;28;20204;-68
2021/03/20 12:11:19;;;;;;;9.50;8.35;;;8.70;92.90;;;;;;5092708;28;20176;-67
2021/03/20 12:13:55;;;;;;;10.32;8.82;;;8.60;92.50;;;;;;5092432;28;20199;-68
2021/03/20 12:16:38;;;;;;;11.75;9.50;;;8.40;92.70;;;;;;5092070;28;20183;-67
2021/03/20 12:19:20;;;;;;;29.75;21.05;;;8.20;93.90;;;;;;5093293;28;20201;-67
2021/03/20 12:21:57;;;;;;;12.55;10.18;;;8.10;93.50;;;;;;5091455;28;20165;-68
2021/03/20 12:24:44;;;;;;;12.95;9.10;;;7.90;94.40;;;;;;5090439;28;20649;-68
2021/03/20 12:27:36;;;;;;;13.43;11.80;;;8.00;94.00;;;;;;5090711;28;20168;-67
2021/03/20 12:30:16;;;;;;;47.22;30.85;;;7.90;93.60;;;;;;5089679;28;20180;-67
2021/03/20 12:32:44;;;;;;;13.45;10.40;;;8.00;92.70;;;;;;5090130;28;20718;-67
2021/03/20 12:35:18;;;;;;;10.23;7.45;;;8.00;92.50;;;;;;5090120;28;20629;-68
2021/03/20 12:37:45;;;;;;;10.63;9.48;;;7.90;91.50;;;;;;5088720;28;20547;-67
2021/03/20 12:40:13;;;;;;;13.65;11.68;;;8.00;91.90;;;;;;5091425;28;20173;-67
2021/03/20 12:42:38;;;;;;;12.13;10.88;;;8.10;92.70;;;;;;5092391;28;20701;-67
2021/03/20 12:45:06;;;;;;;14.07;11.67;;;7.80;94.10;;;;;;5092282;28;20172;-68
2021/03/20 12:47:31;;;;;;;15.75;13.20;;;7.90;94.30;;;;;;5096226;28;20550;-68
2021/03/20 12:49:57;;;;;;;12.67;11.20;;;7.80;94.60;;;;;;5097558;28;20247;-67
2021/03/20 12:52:24;;;;;;;11.63;10.43;;;7.80;94.20;;;;;;5095663;28;20453;-68
2021/03/20 12:54:56;;;;;;;14.88;12.25;;;7.80;94.00;;;;;;5095650;28;20430;-69
2021/03/20 12:57:24;;;;;;;15.38;13.75;;;7.70;95.70;;;;;;5097346;28;20180;-68
2021/03/20 12:59:49;;;;;;;15.27;12.65;;;7.70;96.20;;;;;;5097242;28;20196;-69
2021/03/20 13:02:15;;;;;;;26.80;21.57;;;7.50;97.40;;;;;;5097721;28;20534;-67
2021/03/20 13:04:41;;;;;;;27.08;22.05;;;7.20;99.90;;;;;;5097214;28;20200;-67
2021/03/20 13:07:08;;;;;;;90.97;48.17;;;7.10;99.90;;;;;;5096208;28;20176;-66
2021/03/20 13:09:35;;;;;;;32.35;23.70;;;6.70;99.90;;;;;;5097160;28;20199;-67
2021/03/20 13:12:01;;;;;;;25.50;21.70;;;6.70;99.90;;;;;;5097566;28;20176;-67
2021/03/20 13:14:27;;;;;;;20.77;17.25;;;6.70;99.90;;;;;;5097091;28;20209;-68
2021/03/20 13:16:53;;;;;;;18.60;16.60;;;6.60;99.90;;;;;;5097544;28;20172;-67